Annette, Alaska
Current Conditions -  °F | °C
As of 6:53 PM on Friday 24 Oct 2014 (Local Time) from PANT Reporting Station
Light Rain Light Rain  
Wind Chill: 44°   Ceiling: 4400
Heat Index: 47°   Visibility: 10mi
Dew Point: 43°   Wind: 6mph
Humidity: 86%   Direction: 120°ESE
Pressure: 29.83"   Gusts: NA
Location:  55.05°N, 131.6°W
Report Text: PANT 250353Z AUTO 12005KT 10SM -RA OVC044 08/06 A2983 RMK AO2 RAE16B32 SLP103 P0001 T00830061 TSNO
Loading
Personal Weather Stations






























Interactive Weather Map New forecast layout! Learn more

10-Day Weather Forecast

Advertisements
Track Severe Weather on mobile